sensor_id;sensor_type;location;lat;lon;timestamp;P1;durP1;ratioP1;P2;durP2;ratioP2
39612;SDS011;25303;48.896;13.342;2022-11-13T00:00:34;0.20;;;0.10;;
39612;SDS011;25303;48.896;13.342;2022-11-13T00:03:36;0.10;;;0.10;;
39612;SDS011;25303;48.896;13.342;2022-11-13T00:06:37;0.00;;;0.00;;
39612;SDS011;25303;48.896;13.342;2022-11-13T00:09:40;0.10;;;0.10;;
39612;SDS011;25303;48.896;13.342;2022-11-13T00:12:42;0.17;;;0.10;;
39612;SDS011;25303;48.896;13.342;2022-11-13T00:15:43;0.00;;;0.00;;
39612;SDS011;25303;48.896;13.342;2022-11-13T00:18:44;0.20;;;0.20;;
39612;SDS011;25303;48.896;13.342;2022-11-13T00:21:46;0.30;;;0.03;;
39612;SDS011;25303;48.896;13.342;2022-11-13T00:24:49;0.08;;;0.08;;
39612;SDS011;25303;48.896;13.342;2022-11-13T00:27:51;0.10;;;0.10;;
39612;SDS011;25303;48.896;13.342;2022-11-13T00:30:56;0.15;;;0.10;;
39612;SDS011;25303;48.896;13.342;2022-11-13T00:33:59;0.30;;;0.08;;
39612;SDS011;25303;48.896;13.342;2022-11-13T00:37:20;0.00;;;0.00;;
39612;SDS011;25303;48.896;13.342;2022-11-13T00:40:23;0.00;;;0.00;;
39612;SDS011;25303;48.896;13.342;2022-11-13T00:43:25;0.10;;;0.10;;
39612;SDS011;25303;48.896;13.342;2022-11-13T00:46:27;0.15;;;0.05;;
39612;SDS011;25303;48.896;13.342;2022-11-13T00:49:28;0.05;;;0.00;;
39612;SDS011;25303;48.896;13.342;2022-11-13T00:52:30;0.10;;;0.10;;
39612;SDS011;25303;48.896;13.342;2022-11-13T00:55:33;0.08;;;0.08;;
39612;SDS011;25303;48.896;13.342;2022-11-13T00:58:34;0.00;;;0.00;;
39612;SDS011;25303;48.896;13.342;2022-11-13T01:01:35;0.10;;;0.05;;
39612;SDS011;25303;48.896;13.342;2022-11-13T01:04:37;0.22;;;0.20;;
39612;SDS011;25303;48.896;13.342;2022-11-13T01:07:39;0.20;;;0.10;;
39612;SDS011;25303;48.896;13.342;2022-11-13T01:10:43;0.60;;;0.10;;
39612;SDS011;25303;48.896;13.342;2022-11-13T01:13:52;0.28;;;0.20;;
39612;SDS011;25303;48.896;13.342;2022-11-13T01:16:54;0.13;;;0.10;;
39612;SDS011;25303;48.896;13.342;2022-11-13T01:19:55;0.50;;;0.10;;
39612;SDS011;25303;48.896;13.342;2022-11-13T01:22:57;0.22;;;0.15;;
39612;SDS011;25303;48.896;13.342;2022-11-13T01:26:07;0.50;;;0.17;;
39612;SDS011;25303;48.896;13.342;2022-11-13T01:29:11;0.10;;;0.10;;
39612;SDS011;25303;48.896;13.342;2022-11-13T01:32:12;0.30;;;0.20;;
39612;SDS011;25303;48.896;13.342;2022-11-13T01:35:14;0.20;;;0.10;;
39612;SDS011;25303;48.896;13.342;2022-11-13T01:38:15;0.30;;;0.20;;
39612;SDS011;25303;48.896;13.342;2022-11-13T01:41:19;0.10;;;0.10;;
39612;SDS011;25303;48.896;13.342;2022-11-13T01:44:23;0.70;;;0.13;;
39612;SDS011;25303;48.896;13.342;2022-11-13T01:47:24;0.10;;;0.10;;
39612;SDS011;25303;48.896;13.342;2022-11-13T01:50:26;0.22;;;0.10;;
39612;SDS011;25303;48.896;13.342;2022-11-13T01:53:28;0.20;;;0.10;;
39612;SDS011;25303;48.896;13.342;2022-11-13T01:56:31;0.00;;;0.00;;
39612;SDS011;25303;48.896;13.342;2022-11-13T01:59:33;0.10;;;0.10;;
39612;SDS011;25303;48.896;13.342;2022-11-13T02:02:38;0.10;;;0.10;;
39612;SDS011;25303;48.896;13.342;2022-11-13T02:05:39;0.17;;;0.10;;
39612;SDS011;25303;48.896;13.342;2022-11-13T02:08:41;0.20;;;0.10;;
39612;SDS011;25303;48.896;13.342;2022-11-13T02:11:44;0.20;;;0.10;;
39612;SDS011;25303;48.896;13.342;2022-11-13T02:14:47;0.40;;;0.20;;
39612;SDS011;25303;48.896;13.342;2022-11-13T02:17:53;0.50;;;0.30;;
39612;SDS011;25303;48.896;13.342;2022-11-13T02:20:59;0.43;;;0.20;;
39612;SDS011;25303;48.896;13.342;2022-11-13T02:24:16;0.38;;;0.17;;
39612;SDS011;25303;48.896;13.342;2022-11-13T02:27:25;0.50;;;0.30;;
39612;SDS011;25303;48.896;13.342;2022-11-13T02:30:31;0.93;;;0.45;;
39612;SDS011;25303;48.896;13.342;2022-11-13T02:33:33;0.22;;;0.20;;
39612;SDS011;25303;48.896;13.342;2022-11-13T02:36:35;0.50;;;0.38;;
39612;SDS011;25303;48.896;13.342;2022-11-13T02:39:38;0.70;;;0.30;;
39612;SDS011;25303;48.896;13.342;2022-11-13T02:42:40;0.43;;;0.25;;
39612;SDS011;25303;48.896;13.342;2022-11-13T02:45:41;0.40;;;0.20;;
39612;SDS011;25303;48.896;13.342;2022-11-13T02:48:42;0.28;;;0.20;;
39612;SDS011;25303;48.896;13.342;2022-11-13T02:51:44;1.88;;;0.10;;
39612;SDS011;25303;48.896;13.342;2022-11-13T02:54:47;0.57;;;0.22;;
39612;SDS011;25303;48.896;13.342;2022-11-13T02:57:48;0.30;;;0.10;;
39612;SDS011;25303;48.896;13.342;2022-11-13T03:00:50;0.50;;;0.22;;
39612;SDS011;25303;48.896;13.342;2022-11-13T03:03:51;0.50;;;0.30;;
39612;SDS011;25303;48.896;13.342;2022-11-13T03:06:57;0.28;;;0.20;;
39612;SDS011;25303;48.896;13.342;2022-11-13T03:10:00;0.30;;;0.25;;
39612;SDS011;25303;48.896;13.342;2022-11-13T03:13:02;0.20;;;0.15;;
39612;SDS011;25303;48.896;13.342;2022-11-13T03:16:05;0.60;;;0.20;;
39612;SDS011;25303;48.896;13.342;2022-11-13T03:19:08;0.32;;;0.20;;
39612;SDS011;25303;48.896;13.342;2022-11-13T03:22:10;0.20;;;0.17;;
39612;SDS011;25303;48.896;13.342;2022-11-13T03:25:13;0.20;;;0.20;;
39612;SDS011;25303;48.896;13.342;2022-11-13T03:28:15;0.43;;;0.20;;
39612;SDS011;25303;48.896;13.342;2022-11-13T03:31:17;0.40;;;0.20;;
39612;SDS011;25303;48.896;13.342;2022-11-13T03:34:18;0.30;;;0.20;;
39612;SDS011;25303;48.896;13.342;2022-11-13T03:37:20;0.20;;;0.10;;
39612;SDS011;25303;48.896;13.342;2022-11-13T03:40:23;0.20;;;0.20;;
39612;SDS011;25303;48.896;13.342;2022-11-13T03:43:24;0.30;;;0.10;;
39612;SDS011;25303;48.896;13.342;2022-11-13T03:46:25;0.55;;;0.20;;
39612;SDS011;25303;48.896;13.342;2022-11-13T03:49:26;0.35;;;0.20;;
39612;SDS011;25303;48.896;13.342;2022-11-13T03:52:28;0.45;;;0.20;;
39612;SDS011;25303;48.896;13.342;2022-11-13T03:55:31;0.30;;;0.20;;
39612;SDS011;25303;48.896;13.342;2022-11-13T03:58:32;0.52;;;0.32;;
39612;SDS011;25303;48.896;13.342;2022-11-13T04:01:39;0.30;;;0.20;;
39612;SDS011;25303;48.896;13.342;2022-11-13T04:04:40;0.30;;;0.20;;
39612;SDS011;25303;48.896;13.342;2022-11-13T04:07:41;0.70;;;0.30;;
39612;SDS011;25303;48.896;13.342;2022-11-13T04:10:44;0.68;;;0.30;;
39612;SDS011;25303;48.896;13.342;2022-11-13T04:13:46;0.28;;;0.10;;
39612;SDS011;25303;48.896;13.342;2022-11-13T04:16:47;0.50;;;0.20;;
39612;SDS011;25303;48.896;13.342;2022-11-13T04:19:49;1.75;;;0.20;;
39612;SDS011;25303;48.896;13.342;2022-11-13T04:22:50;0.10;;;0.10;;
39612;SDS011;25303;48.896;13.342;2022-11-13T04:25:53;0.40;;;0.20;;
39612;SDS011;25303;48.896;13.342;2022-11-13T04:28:54;0.30;;;0.20;;
39612;SDS011;25303;48.896;13.342;2022-11-13T04:31:56;0.50;;;0.20;;
39612;SDS011;25303;48.896;13.342;2022-11-13T04:34:57;0.90;;;0.20;;
39612;SDS011;25303;48.896;13.342;2022-11-13T04:37:59;0.63;;;0.22;;
39612;SDS011;25303;48.896;13.342;2022-11-13T04:41:02;0.30;;;0.10;;
39612;SDS011;25303;48.896;13.342;2022-11-13T04:44:21;0.45;;;0.13;;
39612;SDS011;25303;48.896;13.342;2022-11-13T04:47:22;0.40;;;0.10;;
39612;SDS011;25303;48.896;13.342;2022-11-13T04:50:24;0.30;;;0.17;;
39612;SDS011;25303;48.896;13.342;2022-11-13T04:53:25;0.40;;;0.30;;
39612;SDS011;25303;48.896;13.342;2022-11-13T04:56:28;0.28;;;0.20;;
39612;SDS011;25303;48.896;13.342;2022-11-13T04:59:30;0.50;;;0.30;;
39612;SDS011;25303;48.896;13.342;2022-11-13T05:02:31;0.40;;;0.22;;
39612;SDS011;25303;48.896;13.342;2022-11-13T05:05:33;0.20;;;0.20;;
39612;SDS011;25303;48.896;13.342;2022-11-13T05:08:34;0.25;;;0.20;;
39612;SDS011;25303;48.896;13.342;2022-11-13T05:11:38;1.45;;;0.20;;
39612;SDS011;25303;48.896;13.342;2022-11-13T05:14:39;0.32;;;0.20;;
39612;SDS011;25303;48.896;13.342;2022-11-13T05:17:41;0.47;;;0.20;;
39612;SDS011;25303;48.896;13.342;2022-11-13T05:20:43;0.20;;;0.10;;
39612;SDS011;25303;48.896;13.342;2022-11-13T05:23:44;0.30;;;0.28;;
39612;SDS011;25303;48.896;13.342;2022-11-13T05:26:47;0.30;;;0.20;;
39612;SDS011;25303;48.896;13.342;2022-11-13T05:29:48;0.73;;;0.28;;
39612;SDS011;25303;48.896;13.342;2022-11-13T05:32:50;0.40;;;0.30;;
39612;SDS011;25303;48.896;13.342;2022-11-13T05:35:52;0.40;;;0.20;;
39612;SDS011;25303;48.896;13.342;2022-11-13T05:38:53;1.50;;;0.30;;
39612;SDS011;25303;48.896;13.342;2022-11-13T05:41:56;0.50;;;0.30;;
39612;SDS011;25303;48.896;13.342;2022-11-13T05:44:57;0.68;;;0.20;;
39612;SDS011;25303;48.896;13.342;2022-11-13T05:47:59;0.68;;;0.30;;
39612;SDS011;25303;48.896;13.342;2022-11-13T05:51:01;0.52;;;0.22;;
39612;SDS011;25303;48.896;13.342;2022-11-13T05:54:03;0.40;;;0.25;;
39612;SDS011;25303;48.896;13.342;2022-11-13T05:57:06;0.52;;;0.20;;
39612;SDS011;25303;48.896;13.342;2022-11-13T06:00:08;0.57;;;0.30;;
39612;SDS011;25303;48.896;13.342;2022-11-13T06:03:11;0.85;;;0.20;;
39612;SDS011;25303;48.896;13.342;2022-11-13T06:06:13;0.15;;;0.15;;
39612;SDS011;25303;48.896;13.342;2022-11-13T06:09:16;0.45;;;0.22;;
39612;SDS011;25303;48.896;13.342;2022-11-13T06:12:20;0.32;;;0.30;;
39612;SDS011;25303;48.896;13.342;2022-11-13T06:15:21;0.38;;;0.30;;
39612;SDS011;25303;48.896;13.342;2022-11-13T06:18:23;0.43;;;0.20;;
39612;SDS011;25303;48.896;13.342;2022-11-13T06:21:26;0.68;;;0.30;;
39612;SDS011;25303;48.896;13.342;2022-11-13T06:24:28;0.50;;;0.30;;
39612;SDS011;25303;48.896;13.342;2022-11-13T06:27:31;1.35;;;0.10;;
39612;SDS011;25303;48.896;13.342;2022-11-13T06:30:33;0.55;;;0.20;;
39612;SDS011;25303;48.896;13.342;2022-11-13T06:33:35;0.22;;;0.20;;
39612;SDS011;25303;48.896;13.342;2022-11-13T06:36:37;0.30;;;0.20;;
39612;SDS011;25303;48.896;13.342;2022-11-13T06:39:38;0.65;;;0.30;;
39612;SDS011;25303;48.896;13.342;2022-11-13T06:42:41;0.73;;;0.20;;
39612;SDS011;25303;48.896;13.342;2022-11-13T06:45:42;0.43;;;0.30;;
39612;SDS011;25303;48.896;13.342;2022-11-13T06:48:44;1.50;;;0.30;;
39612;SDS011;25303;48.896;13.342;2022-11-13T06:51:46;0.30;;;0.28;;
39612;SDS011;25303;48.896;13.342;2022-11-13T06:54:47;0.50;;;0.20;;
39612;SDS011;25303;48.896;13.342;2022-11-13T06:57:50;0.60;;;0.20;;
39612;SDS011;25303;48.896;13.342;2022-11-13T07:00:54;0.20;;;0.20;;
39612;SDS011;25303;48.896;13.342;2022-11-13T07:03:56;0.10;;;0.10;;
39612;SDS011;25303;48.896;13.342;2022-11-13T07:06:57;0.35;;;0.17;;
39612;SDS011;25303;48.896;13.342;2022-11-13T07:09:59;0.40;;;0.20;;
39612;SDS011;25303;48.896;13.342;2022-11-13T07:13:01;0.40;;;0.20;;
39612;SDS011;25303;48.896;13.342;2022-11-13T07:16:04;0.43;;;0.30;;
39612;SDS011;25303;48.896;13.342;2022-11-13T07:19:15;0.77;;;0.30;;
39612;SDS011;25303;48.896;13.342;2022-11-13T07:22:17;0.40;;;0.30;;
39612;SDS011;25303;48.896;13.342;2022-11-13T07:25:18;0.50;;;0.40;;
39612;SDS011;25303;48.896;13.342;2022-11-13T07:28:21;2.28;;;1.38;;
39612;SDS011;25303;48.896;13.342;2022-11-13T07:31:22;1.50;;;0.77;;
39612;SDS011;25303;48.896;13.342;2022-11-13T07:34:23;0.68;;;0.40;;
39612;SDS011;25303;48.896;13.342;2022-11-13T07:37:25;0.20;;;0.20;;
39612;SDS011;25303;48.896;13.342;2022-11-13T07:40:27;0.90;;;0.50;;
39612;SDS011;25303;48.896;13.342;2022-11-13T07:43:30;0.93;;;0.50;;
39612;SDS011;25303;48.896;13.342;2022-11-13T07:46:31;1.23;;;0.50;;
39612;SDS011;25303;48.896;13.342;2022-11-13T07:49:32;2.15;;;0.50;;
39612;SDS011;25303;48.896;13.342;2022-11-13T07:52:34;0.68;;;0.40;;
39612;SDS011;25303;48.896;13.342;2022-11-13T07:55:36;0.90;;;0.30;;
39612;SDS011;25303;48.896;13.342;2022-11-13T07:58:39;1.20;;;0.38;;
39612;SDS011;25303;48.896;13.342;2022-11-13T08:01:41;0.93;;;0.30;;
39612;SDS011;25303;48.896;13.342;2022-11-13T08:04:43;1.05;;;0.40;;
39612;SDS011;25303;48.896;13.342;2022-11-13T08:07:45;0.60;;;0.30;;
39612;SDS011;25303;48.896;13.342;2022-11-13T08:10:50;0.60;;;0.30;;
39612;SDS011;25303;48.896;13.342;2022-11-13T08:13:53;0.55;;;0.30;;
39612;SDS011;25303;48.896;13.342;2022-11-13T08:16:54;1.60;;;0.35;;
39612;SDS011;25303;48.896;13.342;2022-11-13T08:19:56;0.85;;;0.30;;
39612;SDS011;25303;48.896;13.342;2022-11-13T08:22:58;0.43;;;0.30;;
39612;SDS011;25303;48.896;13.342;2022-11-13T08:26:02;0.52;;;0.30;;
39612;SDS011;25303;48.896;13.342;2022-11-13T08:29:06;0.60;;;0.30;;
39612;SDS011;25303;48.896;13.342;2022-11-13T08:32:08;0.47;;;0.32;;
39612;SDS011;25303;48.896;13.342;2022-11-13T08:35:09;1.30;;;0.20;;
39612;SDS011;25303;48.896;13.342;2022-11-13T08:38:18;0.38;;;0.30;;
39612;SDS011;25303;48.896;13.342;2022-11-13T08:41:20;0.38;;;0.30;;
39612;SDS011;25303;48.896;13.342;2022-11-13T08:44:22;0.40;;;0.30;;
39612;SDS011;25303;48.896;13.342;2022-11-13T08:47:24;0.45;;;0.30;;
39612;SDS011;25303;48.896;13.342;2022-11-13T08:50:28;3.13;;;0.30;;
39612;SDS011;25303;48.896;13.342;2022-11-13T08:53:31;0.30;;;0.28;;
39612;SDS011;25303;48.896;13.342;2022-11-13T08:56:32;0.40;;;0.30;;
39612;SDS011;25303;48.896;13.342;2022-11-13T08:59:35;0.50;;;0.30;;
39612;SDS011;25303;48.896;13.342;2022-11-13T09:02:37;0.50;;;0.30;;
39612;SDS011;25303;48.896;13.342;2022-11-13T09:05:38;0.40;;;0.30;;
39612;SDS011;25303;48.896;13.342;2022-11-13T09:08:40;0.50;;;0.30;;
39612;SDS011;25303;48.896;13.342;2022-11-13T09:11:41;1.63;;;0.40;;
39612;SDS011;25303;48.896;13.342;2022-11-13T09:14:44;0.30;;;0.25;;
39612;SDS011;25303;48.896;13.342;2022-11-13T09:17:45;0.80;;;0.38;;
39612;SDS011;25303;48.896;13.342;2022-11-13T09:20:47;0.55;;;0.40;;
39612;SDS011;25303;48.896;13.342;2022-11-13T09:23:48;0.70;;;0.50;;
39612;SDS011;25303;48.896;13.342;2022-11-13T09:26:49;0.65;;;0.50;;
39612;SDS011;25303;48.896;13.342;2022-11-13T09:29:52;0.60;;;0.40;;
39612;SDS011;25303;48.896;13.342;2022-11-13T09:32:55;0.60;;;0.40;;
39612;SDS011;25303;48.896;13.342;2022-11-13T09:35:58;0.40;;;0.30;;
39612;SDS011;25303;48.896;13.342;2022-11-13T09:38:59;0.50;;;0.40;;
39612;SDS011;25303;48.896;13.342;2022-11-13T09:42:08;1.00;;;0.50;;
39612;SDS011;25303;48.896;13.342;2022-11-13T09:45:15;1.10;;;0.50;;
39612;SDS011;25303;48.896;13.342;2022-11-13T09:48:21;0.40;;;0.30;;
39612;SDS011;25303;48.896;13.342;2022-11-13T09:51:28;0.63;;;0.40;;
39612;SDS011;25303;48.896;13.342;2022-11-13T09:54:34;0.95;;;0.40;;
39612;SDS011;25303;48.896;13.342;2022-11-13T09:57:38;0.68;;;0.50;;
39612;SDS011;25303;48.896;13.342;2022-11-13T10:00:47;0.90;;;0.50;;
39612;SDS011;25303;48.896;13.342;2022-11-13T10:03:51;2.22;;;0.40;;
39612;SDS011;25303;48.896;13.342;2022-11-13T10:07:04;0.57;;;0.40;;
39612;SDS011;25303;48.896;13.342;2022-11-13T10:10:26;0.60;;;0.40;;
39612;SDS011;25303;48.896;13.342;2022-11-13T10:13:39;1.45;;;0.50;;
39612;SDS011;25303;48.896;13.342;2022-11-13T10:16:47;1.27;;;0.40;;
39612;SDS011;25303;48.896;13.342;2022-11-13T10:19:54;0.43;;;0.40;;
39612;SDS011;25303;48.896;13.342;2022-11-13T10:22:59;0.68;;;0.40;;
39612;SDS011;25303;48.896;13.342;2022-11-13T10:26:12;0.73;;;0.50;;
39612;SDS011;25303;48.896;13.342;2022-11-13T10:29:15;0.50;;;0.40;;
39612;SDS011;25303;48.896;13.342;2022-11-13T10:32:21;0.40;;;0.40;;
39612;SDS011;25303;48.896;13.342;2022-11-13T10:35:34;0.30;;;0.30;;
39612;SDS011;25303;48.896;13.342;2022-11-13T10:38:46;0.40;;;0.30;;
39612;SDS011;25303;48.896;13.342;2022-11-13T10:41:51;0.73;;;0.40;;
39612;SDS011;25303;48.896;13.342;2022-11-13T10:44:54;0.70;;;0.50;;
39612;SDS011;25303;48.896;13.342;2022-11-13T10:47:58;0.52;;;0.40;;
39612;SDS011;25303;48.896;13.342;2022-11-13T10:51:05;0.68;;;0.40;;
39612;SDS011;25303;48.896;13.342;2022-11-13T10:54:21;1.05;;;0.60;;
39612;SDS011;25303;48.896;13.342;2022-11-13T10:57:27;2.05;;;0.50;;
39612;SDS011;25303;48.896;13.342;2022-11-13T11:00:33;0.90;;;0.50;;
39612;SDS011;25303;48.896;13.342;2022-11-13T11:03:46;0.93;;;0.43;;
39612;SDS011;25303;48.896;13.342;2022-11-13T11:06:49;0.50;;;0.40;;
39612;SDS011;25303;48.896;13.342;2022-11-13T11:10:19;0.80;;;0.40;;
39612;SDS011;25303;48.896;13.342;2022-11-13T11:13:23;0.60;;;0.40;;
39612;SDS011;25303;48.896;13.342;2022-11-13T11:16:26;2.38;;;0.40;;
39612;SDS011;25303;48.896;13.342;2022-11-13T11:19:29;1.55;;;0.40;;
39612;SDS011;25303;48.896;13.342;2022-11-13T11:22:37;0.60;;;0.40;;
39612;SDS011;25303;48.896;13.342;2022-11-13T11:25:42;0.60;;;0.40;;
39612;SDS011;25303;48.896;13.342;2022-11-13T11:28:52;0.50;;;0.40;;
39612;SDS011;25303;48.896;13.342;2022-11-13T11:32:04;1.23;;;0.50;;
39612;SDS011;25303;48.896;13.342;2022-11-13T11:35:14;0.47;;;0.38;;
39612;SDS011;25303;48.896;13.342;2022-11-13T11:38:20;0.38;;;0.32;;
39612;SDS011;25303;48.896;13.342;2022-11-13T11:41:29;0.50;;;0.40;;
39612;SDS011;25303;48.896;13.342;2022-11-13T11:44:38;1.02;;;0.30;;
39612;SDS011;25303;48.896;13.342;2022-11-13T11:47:49;0.57;;;0.40;;
39612;SDS011;25303;48.896;13.342;2022-11-13T11:50:56;0.40;;;0.30;;
39612;SDS011;25303;48.896;13.342;2022-11-13T11:54:07;0.30;;;0.30;;
39612;SDS011;25303;48.896;13.342;2022-11-13T11:57:21;0.60;;;0.40;;
39612;SDS011;25303;48.896;13.342;2022-11-13T12:00:35;0.30;;;0.30;;
39612;SDS011;25303;48.896;13.342;2022-11-13T12:07:16;0.50;;;0.32;;
39612;SDS011;25303;48.896;13.342;2022-11-13T12:10:29;0.40;;;0.38;;
39612;SDS011;25303;48.896;13.342;2022-11-13T12:13:40;0.40;;;0.40;;
39612;SDS011;25303;48.896;13.342;2022-11-13T12:16:49;0.60;;;0.40;;
39612;SDS011;25303;48.896;13.342;2022-11-13T12:20:15;0.77;;;0.40;;
39612;SDS011;25303;48.896;13.342;2022-11-13T12:23:31;2.28;;;0.30;;
39612;SDS011;25303;48.896;13.342;2022-11-13T12:26:42;0.60;;;0.35;;
39612;SDS011;25303;48.896;13.342;2022-11-13T12:29:53;0.52;;;0.50;;
39612;SDS011;25303;48.896;13.342;2022-11-13T12:33:10;0.73;;;0.40;;
39612;SDS011;25303;48.896;13.342;2022-11-13T12:36:21;1.27;;;0.60;;
39612;SDS011;25303;48.896;13.342;2022-11-13T12:39:30;2.53;;;0.40;;
39612;SDS011;25303;48.896;13.342;2022-11-13T12:42:41;0.80;;;0.50;;
39612;SDS011;25303;48.896;13.342;2022-11-13T12:45:48;0.75;;;0.50;;
39612;SDS011;25303;48.896;13.342;2022-11-13T12:48:52;2.13;;;0.43;;
39612;SDS011;25303;48.896;13.342;2022-11-13T12:51:54;1.27;;;0.70;;
39612;SDS011;25303;48.896;13.342;2022-11-13T12:55:06;0.63;;;0.50;;
39612;SDS011;25303;48.896;13.342;2022-11-13T12:58:24;1.48;;;0.70;;
39612;SDS011;25303;48.896;13.342;2022-11-13T13:01:29;0.80;;;0.43;;
39612;SDS011;25303;48.896;13.342;2022-11-13T13:04:41;1.42;;;0.50;;
39612;SDS011;25303;48.896;13.342;2022-11-13T13:08:06;0.88;;;0.50;;
39612;SDS011;25303;48.896;13.342;2022-11-13T13:11:23;3.08;;;0.57;;
39612;SDS011;25303;48.896;13.342;2022-11-13T13:14:39;0.73;;;0.43;;
39612;SDS011;25303;48.896;13.342;2022-11-13T13:18:00;0.77;;;0.50;;
39612;SDS011;25303;48.896;13.342;2022-11-13T13:21:05;0.95;;;0.50;;
39612;SDS011;25303;48.896;13.342;2022-11-13T13:24:08;0.50;;;0.40;;
39612;SDS011;25303;48.896;13.342;2022-11-13T13:27:31;0.70;;;0.50;;
39612;SDS011;25303;48.896;13.342;2022-11-13T13:30:44;0.68;;;0.50;;
39612;SDS011;25303;48.896;13.342;2022-11-13T13:33:56;0.85;;;0.60;;
39612;SDS011;25303;48.896;13.342;2022-11-13T13:37:38;0.60;;;0.40;;
39612;SDS011;25303;48.896;13.342;2022-11-13T13:40:48;0.98;;;0.50;;
39612;SDS011;25303;48.896;13.342;2022-11-13T13:44:17;0.50;;;0.38;;
39612;SDS011;25303;48.896;13.342;2022-11-13T13:47:27;1.38;;;0.60;;
39612;SDS011;25303;48.896;13.342;2022-11-13T13:50:33;0.93;;;0.50;;
39612;SDS011;25303;48.896;13.342;2022-11-13T13:53:41;0.70;;;0.55;;
39612;SDS011;25303;48.896;13.342;2022-11-13T13:56:42;0.70;;;0.60;;
39612;SDS011;25303;48.896;13.342;2022-11-13T13:59:46;1.42;;;0.60;;
39612;SDS011;25303;48.896;13.342;2022-11-13T14:02:49;0.73;;;0.55;;
39612;SDS011;25303;48.896;13.342;2022-11-13T14:05:52;1.00;;;0.57;;
39612;SDS011;25303;48.896;13.342;2022-11-13T14:09:07;1.13;;;0.55;;
39612;SDS011;25303;48.896;13.342;2022-11-13T14:12:16;2.05;;;0.60;;
39612;SDS011;25303;48.896;13.342;2022-11-13T14:15:22;0.85;;;0.60;;
39612;SDS011;25303;48.896;13.342;2022-11-13T14:18:26;1.48;;;0.80;;
39612;SDS011;25303;48.896;13.342;2022-11-13T14:21:29;0.80;;;0.57;;
39612;SDS011;25303;48.896;13.342;2022-11-13T14:24:31;0.98;;;0.80;;
39612;SDS011;25303;48.896;13.342;2022-11-13T14:27:35;1.42;;;0.90;;
39612;SDS011;25303;48.896;13.342;2022-11-13T14:30:39;1.00;;;0.73;;
39612;SDS011;25303;48.896;13.342;2022-11-13T14:33:41;1.77;;;1.00;;
39612;SDS011;25303;48.896;13.342;2022-11-13T14:36:45;2.00;;;1.00;;
39612;SDS011;25303;48.896;13.342;2022-11-13T14:39:48;1.40;;;0.80;;
39612;SDS011;25303;48.896;13.342;2022-11-13T14:42:51;1.38;;;0.75;;
39612;SDS011;25303;48.896;13.342;2022-11-13T14:45:58;1.27;;;0.80;;
39612;SDS011;25303;48.896;13.342;2022-11-13T14:49:01;1.27;;;0.77;;
39612;SDS011;25303;48.896;13.342;2022-11-13T14:52:03;1.63;;;0.80;;
39612;SDS011;25303;48.896;13.342;2022-11-13T14:55:06;0.80;;;0.65;;
39612;SDS011;25303;48.896;13.342;2022-11-13T14:58:25;1.08;;;0.80;;
39612;SDS011;25303;48.896;13.342;2022-11-13T15:01:28;1.10;;;0.80;;
39612;SDS011;25303;48.896;13.342;2022-11-13T15:04:31;1.40;;;0.88;;
39612;SDS011;25303;48.896;13.342;2022-11-13T15:07:40;1.45;;;1.00;;
39612;SDS011;25303;48.896;13.342;2022-11-13T15:10:42;1.20;;;0.95;;
39612;SDS011;25303;48.896;13.342;2022-11-13T15:13:43;1.80;;;0.80;;
39612;SDS011;25303;48.896;13.342;2022-11-13T15:16:50;0.97;;;0.80;;
39612;SDS011;25303;48.896;13.342;2022-11-13T15:19:56;1.10;;;0.82;;
39612;SDS011;25303;48.896;13.342;2022-11-13T15:23:50;1.35;;;0.80;;
39612;SDS011;25303;48.896;13.342;2022-11-13T15:26:51;1.30;;;0.80;;
39612;SDS011;25303;48.896;13.342;2022-11-13T15:29:53;1.55;;;0.90;;
39612;SDS011;25303;48.896;13.342;2022-11-13T15:32:56;1.20;;;0.85;;
39612;SDS011;25303;48.896;13.342;2022-11-13T15:35:58;1.17;;;0.80;;
39612;SDS011;25303;48.896;13.342;2022-11-13T15:39:00;1.00;;;0.70;;
39612;SDS011;25303;48.896;13.342;2022-11-13T15:45:12;1.35;;;0.65;;
39612;SDS011;25303;48.896;13.342;2022-11-13T15:48:16;1.42;;;0.65;;
39612;SDS011;25303;48.896;13.342;2022-11-13T15:51:18;1.10;;;0.73;;
39612;SDS011;25303;48.896;13.342;2022-11-13T15:54:23;1.33;;;0.80;;
39612;SDS011;25303;48.896;13.342;2022-11-13T15:57:28;1.38;;;0.80;;
39612;SDS011;25303;48.896;13.342;2022-11-13T16:00:31;1.88;;;0.93;;
39612;SDS011;25303;48.896;13.342;2022-11-13T16:03:34;0.93;;;0.70;;
39612;SDS011;25303;48.896;13.342;2022-11-13T16:06:39;1.75;;;1.00;;
39612;SDS011;25303;48.896;13.342;2022-11-13T16:09:41;2.53;;;1.30;;
39612;SDS011;25303;48.896;13.342;2022-11-13T16:12:43;1.30;;;1.02;;
39612;SDS011;25303;48.896;13.342;2022-11-13T16:15:46;1.63;;;1.05;;
39612;SDS011;25303;48.896;13.342;2022-11-13T16:18:50;1.98;;;1.15;;
39612;SDS011;25303;48.896;13.342;2022-11-13T16:21:58;1.85;;;1.20;;
39612;SDS011;25303;48.896;13.342;2022-11-13T16:25:00;1.00;;;0.90;;
39612;SDS011;25303;48.896;13.342;2022-11-13T16:28:01;1.63;;;1.00;;
39612;SDS011;25303;48.896;13.342;2022-11-13T16:31:03;2.40;;;1.33;;
39612;SDS011;25303;48.896;13.342;2022-11-13T16:34:07;2.03;;;1.20;;
39612;SDS011;25303;48.896;13.342;2022-11-13T16:37:11;1.75;;;1.10;;
39612;SDS011;25303;48.896;13.342;2022-11-13T16:40:17;2.92;;;1.40;;
39612;SDS011;25303;48.896;13.342;2022-11-13T16:43:20;3.10;;;1.20;;
39612;SDS011;25303;48.896;13.342;2022-11-13T16:46:23;2.45;;;1.15;;
39612;SDS011;25303;48.896;13.342;2022-11-13T16:49:28;2.00;;;1.25;;
39612;SDS011;25303;48.896;13.342;2022-11-13T16:52:30;2.70;;;1.55;;
39612;SDS011;25303;48.896;13.342;2022-11-13T16:55:33;2.67;;;1.60;;
39612;SDS011;25303;48.896;13.342;2022-11-13T16:58:35;2.85;;;1.40;;
39612;SDS011;25303;48.896;13.342;2022-11-13T17:01:37;2.20;;;1.40;;
39612;SDS011;25303;48.896;13.342;2022-11-13T17:04:40;1.98;;;1.33;;
39612;SDS011;25303;48.896;13.342;2022-11-13T17:07:42;1.83;;;1.30;;
39612;SDS011;25303;48.896;13.342;2022-11-13T17:10:44;2.22;;;1.40;;
39612;SDS011;25303;48.896;13.342;2022-11-13T17:13:47;1.88;;;1.20;;
39612;SDS011;25303;48.896;13.342;2022-11-13T17:16:50;2.80;;;1.40;;
39612;SDS011;25303;48.896;13.342;2022-11-13T17:19:53;1.80;;;1.30;;
39612;SDS011;25303;48.896;13.342;2022-11-13T17:22:54;1.80;;;1.42;;
39612;SDS011;25303;48.896;13.342;2022-11-13T17:25:56;1.70;;;1.38;;
39612;SDS011;25303;48.896;13.342;2022-11-13T17:28:57;2.08;;;1.48;;
39612;SDS011;25303;48.896;13.342;2022-11-13T17:32:00;1.77;;;1.30;;
39612;SDS011;25303;48.896;13.342;2022-11-13T17:35:03;2.50;;;1.70;;
39612;SDS011;25303;48.896;13.342;2022-11-13T17:38:06;2.25;;;1.38;;
39612;SDS011;25303;48.896;13.342;2022-11-13T17:41:08;2.20;;;1.48;;
39612;SDS011;25303;48.896;13.342;2022-11-13T17:44:10;2.45;;;1.52;;
39612;SDS011;25303;48.896;13.342;2022-11-13T17:47:12;2.03;;;1.50;;
39612;SDS011;25303;48.896;13.342;2022-11-13T17:50:15;2.65;;;1.58;;
39612;SDS011;25303;48.896;13.342;2022-11-13T17:53:17;2.58;;;1.80;;
39612;SDS011;25303;48.896;13.342;2022-11-13T17:56:18;2.38;;;1.45;;
39612;SDS011;25303;48.896;13.342;2022-11-13T17:59:19;2.30;;;1.50;;
39612;SDS011;25303;48.896;13.342;2022-11-13T18:02:21;2.28;;;1.50;;
39612;SDS011;25303;48.896;13.342;2022-11-13T18:05:23;2.05;;;1.45;;
39612;SDS011;25303;48.896;13.342;2022-11-13T18:08:25;2.20;;;1.40;;
39612;SDS011;25303;48.896;13.342;2022-11-13T18:11:28;2.05;;;1.40;;
39612;SDS011;25303;48.896;13.342;2022-11-13T18:14:31;2.30;;;1.55;;
39612;SDS011;25303;48.896;13.342;2022-11-13T18:17:32;2.70;;;1.50;;
39612;SDS011;25303;48.896;13.342;2022-11-13T18:20:37;3.72;;;1.27;;